Time;durP1;ratioP1;P1;durP2;ratioP2;P2;SDS_P1;SDS_P2;PMS_P1;PMS_P2;Temp;Humidity;BMP_temperature;BMP_pressure;BME280_temperature;BME280_humidity;BME280_pressure;Samples;Min_cycle;Max_cycle;Signal;HPM_P1;HPM_P2
2022/01/23 00:00:28;;;;;;;;;;;23.60;48.20;;;;;;1561206;75;1144;-74
2022/01/23 00:02:27;;;;;;;;;;;23.70;48.30;;;;;;1561898;75;1154;-74
2022/01/23 00:04:28;;;;;;;;;;;23.60;48.20;;;;;;1561315;75;979;-75
2022/01/23 00:06:30;;;;;;;;;;;23.70;48.30;;;;;;1561234;75;1144;-74
2022/01/23 00:08:32;;;;;;;;;;;23.60;48.20;;;;;;1558189;76;717;-74
2022/01/23 00:10:34;;;;;;;;;;;23.70;48.40;;;;;;1559428;76;712;-77
2022/01/23 00:12:45;;;;;;;;;;;23.70;48.40;;;;;;1561305;75;707;-75
2022/01/23 00:17:17;;;;;;;;;;;23.60;48.20;;;;;;1561120;75;1896;-73
2022/01/23 00:19:16;;;;;;;;;;;23.70;48.40;;;;;;1557489;75;1017;-73
2022/01/23 00:21:17;;;;;;;;;;;23.70;48.40;;;;;;1557336;75;707;-75
2022/01/23 00:30:28;;;;;;;;;;;23.70;48.50;;;;;;1567518;75;1651;-74
2022/01/23 00:32:30;;;;;;;;;;;23.70;48.50;;;;;;1556274;75;1344;-74
2022/01/23 00:34:32;;;;;;;;;;;23.60;48.40;;;;;;1558227;76;666;-73
2022/01/23 00:36:35;;;;;;;;;;;23.70;48.50;;;;;;1559181;75;1948;-74
2022/01/23 00:38:37;;;;;;;;;;;23.70;48.50;;;;;;1559561;75;696;-75
2022/01/23 00:40:39;;;;;;;;;;;23.70;48.50;;;;;;1560441;75;721;-74
2022/01/23 00:42:41;;;;;;;;;;;23.70;48.50;;;;;;1546707;75;709;-74
2022/01/23 00:44:46;;;;;;;;;;;23.70;48.50;;;;;;1550429;76;756;-74
2022/01/23 00:46:50;;;;;;;;;;;23.70;48.50;;;;;;1560451;75;1168;-74
2022/01/23 00:51:00;;;;;;;;;;;23.70;48.50;;;;;;1551446;76;767;-74
2022/01/23 00:53:03;;;;;;;;;;;23.70;48.50;;;;;;1568370;75;719;-74
2022/01/23 00:55:05;;;;;;;;;;;23.70;48.50;;;;;;1567296;75;1106;-74
2022/01/23 00:57:07;;;;;;;;;;;23.70;48.50;;;;;;1555331;75;1903;-74
2022/01/23 00:59:09;;;;;;;;;;;23.70;48.50;;;;;;1559241;75;720;-73
2022/01/23 01:01:11;;;;;;;;;;;23.70;48.60;;;;;;1568178;75;694;-74
2022/01/23 01:03:13;;;;;;;;;;;23.60;48.40;;;;;;1563663;75;723;-74
2022/01/23 01:05:15;;;;;;;;;;;23.70;48.50;;;;;;1558836;76;1087;-72
2022/01/23 01:07:17;;;;;;;;;;;23.70;48.50;;;;;;1564435;75;750;-74
2022/01/23 01:09:19;;;;;;;;;;;23.70;48.40;;;;;;1558368;75;777;-73
2022/01/23 01:13:30;;;;;;;;;;;23.70;48.40;;;;;;1555290;75;874;-73
2022/01/23 01:31:42;;;;;;;;;;;23.70;48.60;;;;;;1550501;75;1639;-75
2022/01/23 01:33:52;;;;;;;;;;;23.70;48.60;;;;;;1557131;76;1104;-75
2022/01/23 01:36:01;;;;;;;;;;;23.70;48.50;;;;;;1549150;75;1163;-74
2022/01/23 01:37:50;;;;;;;;;;;23.70;48.60;;;;;;1553508;76;1939;-75
2022/01/23 01:39:52;;;;;;;;;;;23.70;48.50;;;;;;1562486;75;749;-75
2022/01/23 01:41:54;;;;;;;;;;;23.70;48.60;;;;;;1560917;75;733;-76
2022/01/23 01:43:57;;;;;;;;;;;23.70;48.60;;;;;;1567817;75;611;-77
2022/01/23 01:45:59;;;;;;;;;;;23.70;48.50;;;;;;1561261;74;1158;-74
2022/01/23 01:48:01;;;;;;;;;;;23.70;48.60;;;;;;1565843;75;701;-73
2022/01/23 01:50:04;;;;;;;;;;;23.70;48.60;;;;;;1568683;75;774;-73
2022/01/23 01:52:06;;;;;;;;;;;23.70;48.60;;;;;;1556919;75;770;-73
2022/01/23 01:54:12;;;;;;;;;;;23.70;48.60;;;;;;1570045;75;722;-73
2022/01/23 01:56:12;;;;;;;;;;;23.70;48.60;;;;;;1552957;75;1150;-73
2022/01/23 01:58:54;;;;;;;;;;;23.70;48.50;;;;;;1559519;75;1932;-73
2022/01/23 02:00:41;;;;;;;;;;;23.70;48.50;;;;;;1572842;75;978;-73
2022/01/23 02:09:43;;;;;;;;;;;23.70;48.50;;;;;;1559542;75;707;-75
2022/01/23 02:14:31;;;;;;;;;;;23.70;48.50;;;;;;1550461;74;2766;-74
2022/01/23 02:23:32;;;;;;;;;;;23.70;48.60;;;;;;1567542;74;1666;-77
2022/01/23 02:51:00;;;;;;;;;;;23.60;48.50;;;;;;1526984;76;1948;-78
2022/01/23 02:55:26;;;;;;;;;;;23.60;48.60;;;;;;1549211;76;1129;-76
2022/01/23 02:57:50;;;;;;;;;;;23.60;48.50;;;;;;1529668;76;1908;-77
2022/01/23 02:59:38;;;;;;;;;;;23.60;48.50;;;;;;1531392;76;1118;-73
2022/01/23 03:02:00;;;;;;;;;;;23.60;48.50;;;;;;1530379;76;771;-74
2022/01/23 03:03:47;;;;;;;;;;;23.60;48.60;;;;;;1544466;76;1644;-75
2022/01/23 03:06:09;;;;;;;;;;;23.60;48.60;;;;;;1544403;76;1653;-76
2022/01/23 03:10:18;;;;;;;;;;;23.60;48.60;;;;;;1508741;78;1104;-78
2022/01/23 03:13:20;;;;;;;;;;;23.60;48.60;;;;;;1532717;75;1107;-77
2022/01/23 03:15:30;;;;;;;;;;;23.60;48.60;;;;;;1535701;76;1150;-77
2022/01/23 03:28:17;;;;;;;;;;;23.60;48.70;;;;;;1536048;76;893;-79
2022/01/23 03:30:13;;;;;;;;;;;23.70;48.80;;;;;;1530030;76;1438;-77
2022/01/23 03:32:13;;;;;;;;;;;23.70;48.80;;;;;;1531411;76;1595;-81
2022/01/23 03:34:05;;;;;;;;;;;23.80;48.70;;;;;;1539184;76;1721;-79
2022/01/23 03:36:07;;;;;;;;;;;23.70;48.80;;;;;;1542401;76;678;-79
2022/01/23 03:38:09;;;;;;;;;;;23.80;48.70;;;;;;1524810;76;1944;-77
2022/01/23 03:40:11;;;;;;;;;;;23.80;48.60;;;;;;1536510;76;809;-77
2022/01/23 03:42:12;;;;;;;;;;;23.70;48.70;;;;;;1543613;76;726;-77
2022/01/23 03:44:16;;;;;;;;;;;23.80;48.60;;;;;;1542189;76;1122;-78
2022/01/23 03:46:33;;;;;;;;;;;23.90;48.70;;;;;;1531655;76;703;-76
2022/01/23 03:50:30;;;;;;;;;;;23.90;48.60;;;;;;1543380;76;802;-76
2022/01/23 03:52:32;;;;;;;;;;;23.90;48.60;;;;;;1539867;76;763;-76
2022/01/23 03:54:34;;;;;;;;;;;23.90;48.60;;;;;;1538938;76;1152;-79
2022/01/23 03:56:36;;;;;;;;;;;24.00;48.60;;;;;;1534753;76;710;-80
2022/01/23 03:58:38;;;;;;;;;;;24.00;48.60;;;;;;1541074;76;1938;-76
2022/01/23 04:00:39;;;;;;;;;;;24.00;48.60;;;;;;1535787;76;754;-79
2022/01/23 04:02:41;;;;;;;;;;;24.00;48.60;;;;;;1549615;76;789;-76
2022/01/23 04:04:43;;;;;;;;;;;24.00;48.50;;;;;;1535473;76;1198;-76
2022/01/23 04:06:45;;;;;;;;;;;24.00;48.50;;;;;;1535630;76;700;-76
2022/01/23 04:08:49;;;;;;;;;;;24.10;48.60;;;;;;1535530;76;703;-77
2022/01/23 04:10:50;;;;;;;;;;;24.10;48.50;;;;;;1534439;76;773;-75
2022/01/23 04:13:07;;;;;;;;;;;24.10;48.50;;;;;;1537911;76;771;-75
2022/01/23 04:15:28;;;;;;;;;;;24.00;48.30;;;;;;1532670;76;1154;-75
2022/01/23 05:00:59;;;;;;;;;;;24.20;48.30;;;;;;1542143;76;769;-82
2022/01/23 05:03:47;;;;;;;;;;;24.20;48.30;;;;;;1533786;76;1627;-77
2022/01/23 05:05:08;;;;;;;;;;;24.20;48.20;;;;;;1533393;76;1538;-79
2022/01/23 05:07:13;;;;;;;;;;;24.20;48.30;;;;;;1539478;76;712;-81
2022/01/23 05:09:15;;;;;;;;;;;24.30;48.40;;;;;;1555576;76;1685;-75
2022/01/23 05:11:16;;;;;;;;;;;24.30;48.40;;;;;;1555276;76;726;-79
2022/01/23 05:13:18;;;;;;;;;;;24.30;48.40;;;;;;1551181;76;719;-80
2022/01/23 05:15:21;;;;;;;;;;;24.30;48.30;;;;;;1548202;76;1106;-75
2022/01/23 05:17:23;;;;;;;;;;;24.30;48.20;;;;;;1546214;76;1924;-79
2022/01/23 05:19:25;;;;;;;;;;;24.30;48.20;;;;;;1539401;76;718;-79
2022/01/23 05:23:36;;;;;;;;;;;24.30;48.10;;;;;;1552840;76;843;-75
2022/01/23 05:25:39;;;;;;;;;;;24.30;48.10;;;;;;1536593;76;1131;-77
2022/01/23 05:27:41;;;;;;;;;;;24.30;48.10;;;;;;1547371;76;752;-74
2022/01/23 05:29:43;;;;;;;;;;;24.30;48.00;;;;;;1535797;76;824;-75
2022/01/23 05:31:45;;;;;;;;;;;24.30;48.00;;;;;;1541784;76;770;-77
2022/01/23 05:33:47;;;;;;;;;;;24.40;47.90;;;;;;1548630;76;747;-76
2022/01/23 05:35:48;;;;;;;;;;;24.30;47.90;;;;;;1537672;76;757;-75
2022/01/23 05:37:50;;;;;;;;;;;24.30;48.00;;;;;;1540755;76;1928;-73
2022/01/23 05:39:52;;;;;;;;;;;24.30;48.10;;;;;;1540626;76;636;-78
2022/01/23 05:41:59;;;;;;;;;;;24.30;48.10;;;;;;1549925;76;747;-80
2022/01/23 05:43:58;;;;;;;;;;;24.30;48.10;;;;;;1536316;77;1182;-78
2022/01/23 05:46:00;;;;;;;;;;;24.40;48.00;;;;;;1536767;76;779;-76
2022/01/23 05:48:01;;;;;;;;;;;24.40;47.80;;;;;;1537528;76;819;-79
2022/01/23 05:50:05;;;;;;;;;;;24.50;47.90;;;;;;1547599;76;712;-81
2022/01/23 05:52:07;;;;;;;;;;;24.50;47.90;;;;;;1541885;76;902;-77
2022/01/23 05:54:09;;;;;;;;;;;24.50;47.80;;;;;;1551004;76;1154;-77
2022/01/23 05:56:11;;;;;;;;;;;24.50;48.00;;;;;;1549894;76;753;-80
2022/01/23 05:58:13;;;;;;;;;;;24.40;47.90;;;;;;1542991;76;1943;-76
2022/01/23 06:00:15;;;;;;;;;;;24.40;47.80;;;;;;1546863;76;722;-73
2022/01/23 06:02:17;;;;;;;;;;;24.50;47.90;;;;;;1552809;76;823;-76
2022/01/23 06:04:19;;;;;;;;;;;24.50;47.90;;;;;;1551688;75;1089;-76
2022/01/23 06:06:21;;;;;;;;;;;24.40;47.80;;;;;;1531158;76;739;-71
2022/01/23 06:08:24;;;;;;;;;;;24.50;47.80;;;;;;1550127;75;719;-71
2022/01/23 06:10:28;;;;;;;;;;;24.50;47.70;;;;;;1534522;76;813;-70
2022/01/23 06:12:30;;;;;;;;;;;24.50;47.60;;;;;;1535613;76;715;-70
2022/01/23 06:14:32;;;;;;;;;;;24.50;47.60;;;;;;1544452;76;1120;-71
2022/01/23 06:16:33;;;;;;;;;;;24.50;47.70;;;;;;1527944;76;782;-71
2022/01/23 06:18:38;;;;;;;;;;;24.60;47.60;;;;;;1545095;76;1943;-71
2022/01/23 06:20:39;;;;;;;;;;;24.50;47.50;;;;;;1535512;76;1708;-71
2022/01/23 06:22:47;;;;;;;;;;;24.50;47.40;;;;;;1540996;76;725;-75
2022/01/23 06:24:47;;;;;;;;;;;24.50;47.40;;;;;;1535851;76;1154;-70
2022/01/23 06:26:49;;;;;;;;;;;24.50;47.40;;;;;;1541958;76;1137;-71
2022/01/23 06:28:52;;;;;;;;;;;24.40;47.30;;;;;;1534437;76;813;-70
2022/01/23 06:30:54;;;;;;;;;;;24.50;47.40;;;;;;1540723;76;869;-73
2022/01/23 06:32:56;;;;;;;;;;;24.40;47.30;;;;;;1535932;76;946;-71
2022/01/23 06:34:58;;;;;;;;;;;24.50;47.40;;;;;;1552895;76;1133;-75
2022/01/23 06:37:00;;;;;;;;;;;24.50;47.30;;;;;;1534298;76;712;-74
2022/01/23 06:39:02;;;;;;;;;;;24.40;47.30;;;;;;1535695;76;1946;-73
2022/01/23 06:41:03;;;;;;;;;;;24.50;47.30;;;;;;1540359;76;766;-72
2022/01/23 06:43:05;;;;;;;;;;;24.50;47.30;;;;;;1539393;76;793;-71
2022/01/23 06:45:07;;;;;;;;;;;24.50;47.30;;;;;;1539586;76;1162;-70
2022/01/23 06:47:09;;;;;;;;;;;24.50;47.40;;;;;;1543883;76;775;-68
2022/01/23 06:49:11;;;;;;;;;;;24.40;47.30;;;;;;1543195;76;801;-70
2022/01/23 06:51:13;;;;;;;;;;;24.40;47.30;;;;;;1540686;76;754;-72
2022/01/23 06:53:15;;;;;;;;;;;24.40;47.10;;;;;;1531196;76;729;-72
2022/01/23 06:55:17;;;;;;;;;;;24.30;46.40;;;;;;1536173;76;1144;-72
2022/01/23 06:57:19;;;;;;;;;;;24.30;45.80;;;;;;1535740;76;782;-73
2022/01/23 06:59:21;;;;;;;;;;;24.20;46.10;;;;;;1536054;77;1952;-71
2022/01/23 07:01:22;;;;;;;;;;;24.20;46.30;;;;;;1536302;76;783;-70
2022/01/23 07:03:24;;;;;;;;;;;24.20;46.40;;;;;;1546134;76;727;-71
2022/01/23 07:05:26;;;;;;;;;;;24.20;46.30;;;;;;1541700;76;1124;-71
2022/01/23 07:07:28;;;;;;;;;;;24.20;46.40;;;;;;1539218;76;699;-71
2022/01/23 07:09:30;;;;;;;;;;;24.20;46.30;;;;;;1535125;76;695;-74
2022/01/23 07:11:32;;;;;;;;;;;24.30;46.50;;;;;;1536530;76;924;-76
2022/01/23 07:13:34;;;;;;;;;;;24.30;46.60;;;;;;1551273;76;767;-80
2022/01/23 07:15:36;;;;;;;;;;;24.20;46.20;;;;;;1534685;76;1095;-77
2022/01/23 07:17:39;;;;;;;;;;;24.20;45.70;;;;;;1545439;76;799;-79
2022/01/23 07:19:41;;;;;;;;;;;24.10;44.50;;;;;;1543419;76;1943;-74
2022/01/23 07:21:43;;;;;;;;;;;24.10;44.60;;;;;;1545715;76;668;-74
2022/01/23 07:23:50;;;;;;;;;;;24.00;44.90;;;;;;1554968;76;744;-74
2022/01/23 07:25:49;;;;;;;;;;;24.00;45.00;;;;;;1539445;76;1619;-78
2022/01/23 07:27:54;;;;;;;;;;;24.10;45.10;;;;;;1562488;75;763;-76
2022/01/23 07:29:55;;;;;;;;;;;24.10;45.00;;;;;;1549676;74;1150;-73
2022/01/23 07:31:59;;;;;;;;;;;24.10;45.20;;;;;;1539867;76;729;-73
2022/01/23 07:34:00;;;;;;;;;;;24.10;45.20;;;;;;1545923;76;1690;-74
2022/01/23 07:36:03;;;;;;;;;;;24.10;45.30;;;;;;1506507;78;1247;-74
2022/01/23 07:38:05;;;;;;;;;;;24.10;45.40;;;;;;1530165;76;792;-76
2022/01/23 07:40:07;;;;;;;;;;;24.10;45.50;;;;;;1533400;77;1922;-72
2022/01/23 07:42:09;;;;;;;;;;;24.10;45.50;;;;;;1540372;76;737;-75
2022/01/23 07:44:11;;;;;;;;;;;24.10;45.50;;;;;;1549905;76;1172;-74
2022/01/23 07:46:13;;;;;;;;;;;24.20;45.50;;;;;;1539108;76;810;-74
2022/01/23 07:48:15;;;;;;;;;;;24.20;45.50;;;;;;1543286;76;720;-74
2022/01/23 07:50:17;;;;;;;;;;;24.20;45.60;;;;;;1534988;76;706;-73
2022/01/23 07:52:19;;;;;;;;;;;24.10;45.60;;;;;;1535044;76;711;-72
2022/01/23 07:54:22;;;;;;;;;;;24.20;45.60;;;;;;1534422;76;1127;-73
2022/01/23 07:56:24;;;;;;;;;;;24.20;45.60;;;;;;1535389;76;790;-73
2022/01/23 07:58:26;;;;;;;;;;;24.20;45.60;;;;;;1550957;76;1942;-72
2022/01/23 08:00:28;;;;;;;;;;;24.20;45.60;;;;;;1538191;76;762;-72
2022/01/23 08:02:30;;;;;;;;;;;24.20;45.70;;;;;;1545060;76;725;-73
2022/01/23 08:04:32;;;;;;;;;;;24.20;45.60;;;;;;1536076;76;1136;-72
2022/01/23 08:06:40;;;;;;;;;;;24.20;45.70;;;;;;1536193;76;778;-72
2022/01/23 08:08:38;;;;;;;;;;;24.20;45.70;;;;;;1533563;76;1685;-72
2022/01/23 08:10:40;;;;;;;;;;;24.20;45.70;;;;;;1539072;76;689;-75
2022/01/23 08:12:42;;;;;;;;;;;24.30;45.90;;;;;;1536664;76;812;-72
2022/01/23 08:14:43;;;;;;;;;;;24.20;45.70;;;;;;1548736;74;2076;-72
2022/01/23 08:16:45;;;;;;;;;;;24.30;45.90;;;;;;1563907;75;642;-71
2022/01/23 08:18:47;;;;;;;;;;;24.20;45.70;;;;;;1565985;75;1944;-71
2022/01/23 08:20:49;;;;;;;;;;;24.20;45.80;;;;;;1573560;75;716;-70
2022/01/23 08:22:51;;;;;;;;;;;24.30;45.90;;;;;;1559333;75;724;-71
2022/01/23 08:24:54;;;;;;;;;;;24.20;45.70;;;;;;1564862;74;1190;-71
2022/01/23 08:26:55;;;;;;;;;;;24.20;45.70;;;;;;1564919;75;711;-71
2022/01/23 08:28:57;;;;;;;;;;;24.20;45.80;;;;;;1560736;75;744;-72
2022/01/23 08:30:59;;;;;;;;;;;24.30;45.90;;;;;;1546478;75;653;-71
2022/01/23 08:33:01;;;;;;;;;;;24.30;45.80;;;;;;1559669;75;811;-72
2022/01/23 08:35:04;;;;;;;;;;;24.30;45.70;;;;;;1566417;75;1173;-72
2022/01/23 08:37:07;;;;;;;;;;;24.30;45.70;;;;;;1565094;75;779;-72
2022/01/23 08:39:09;;;;;;;;;;;24.30;45.70;;;;;;1561952;75;1934;-72
2022/01/23 08:43:24;;;;;;;;;;;24.40;45.70;;;;;;1554448;75;850;-72
2022/01/23 08:45:26;;;;;;;;;;;24.30;45.80;;;;;;1562267;75;1174;-73
2022/01/23 08:47:28;;;;;;;;;;;24.30;45.70;;;;;;1559118;75;700;-72
2022/01/23 08:49:30;;;;;;;;;;;24.30;45.80;;;;;;1562933;75;749;-73
2022/01/23 08:51:32;;;;;;;;;;;24.30;45.70;;;;;;1567245;75;646;-73
2022/01/23 08:53:34;;;;;;;;;;;24.30;45.80;;;;;;1562166;75;787;-73
2022/01/23 08:55:36;;;;;;;;;;;24.30;45.80;;;;;;1572388;75;1141;-73
2022/01/23 08:57:37;;;;;;;;;;;24.30;45.90;;;;;;1560008;75;794;-71
2022/01/23 08:59:39;;;;;;;;;;;24.30;45.90;;;;;;1570698;75;1942;-72
2022/01/23 09:01:41;;;;;;;;;;;24.30;45.90;;;;;;1560817;75;689;-71
2022/01/23 09:03:43;;;;;;;;;;;24.30;45.90;;;;;;1563247;75;708;-73
2022/01/23 09:05:45;;;;;;;;;;;24.30;45.90;;;;;;1563830;74;1140;-72
2022/01/23 09:07:47;;;;;;;;;;;24.20;45.80;;;;;;1554434;75;734;-73
2022/01/23 09:09:49;;;;;;;;;;;24.30;46.00;;;;;;1566729;75;730;-72
2022/01/23 09:12:01;;;;;;;;;;;24.30;46.00;;;;;;1556799;75;724;-72
2022/01/23 09:14:10;;;;;;;;;;;24.20;45.80;;;;;;1558426;75;1132;-72
2022/01/23 09:16:13;;;;;;;;;;;24.20;45.80;;;;;;1553360;75;1185;-73
2022/01/23 09:18:15;;;;;;;;;;;24.20;45.80;;;;;;1564897;75;666;-74
2022/01/23 09:20:17;;;;;;;;;;;24.20;45.80;;;;;;1557925;74;1925;-73
2022/01/23 09:22:19;;;;;;;;;;;24.20;45.80;;;;;;1564643;75;732;-72
2022/01/23 09:24:23;;;;;;;;;;;24.20;45.90;;;;;;1564886;75;1015;-73
2022/01/23 09:26:24;;;;;;;;;;;24.20;45.80;;;;;;1557302;75;730;-71
2022/01/23 09:28:33;;;;;;;;;;;24.20;45.80;;;;;;1563181;74;687;-70
2022/01/23 09:30:36;;;;;;;;;;;24.20;45.60;;;;;;1557714;75;745;-70
2022/01/23 09:32:38;;;;;;;;;;;24.10;45.40;;;;;;1568285;75;723;-70
2022/01/23 09:34:41;;;;;;;;;;;24.00;45.10;;;;;;1557994;75;1145;-70
2022/01/23 09:36:44;;;;;;;;;;;24.00;44.80;;;;;;1561908;75;752;-70
2022/01/23 09:38:46;;;;;;;;;;;23.90;44.60;;;;;;1562421;75;709;-70
2022/01/23 09:40:48;;;;;;;;;;;23.90;44.30;;;;;;1563474;75;1935;-71
2022/01/23 09:42:52;;;;;;;;;;;23.80;43.90;;;;;;1568161;75;722;-70
2022/01/23 09:44:58;;;;;;;;;;;23.90;43.90;;;;;;1558487;74;1153;-71
2022/01/23 09:47:00;;;;;;;;;;;23.80;43.70;;;;;;1559036;75;773;-70
2022/01/23 09:49:02;;;;;;;;;;;23.80;43.60;;;;;;1565381;75;740;-70
2022/01/23 09:51:04;;;;;;;;;;;23.80;43.40;;;;;;1567908;75;710;-70
2022/01/23 09:53:06;;;;;;;;;;;23.70;43.30;;;;;;1554926;75;721;-70
2022/01/23 09:55:11;;;;;;;;;;;23.70;43.10;;;;;;1568365;75;1133;-70
2022/01/23 09:57:15;;;;;;;;;;;23.60;42.80;;;;;;1556944;75;744;-69
2022/01/23 09:59:18;;;;;;;;;;;23.60;42.80;;;;;;1564010;75;1907;-70
2022/01/23 10:01:20;;;;;;;;;;;23.60;42.40;;;;;;1556926;75;726;-70
2022/01/23 10:03:22;;;;;;;;;;;23.60;42.80;;;;;;1563041;75;909;-69
2022/01/23 10:05:26;;;;;;;;;;;23.60;42.90;;;;;;1564052;75;1145;-73
2022/01/23 10:07:28;;;;;;;;;;;23.50;42.90;;;;;;1554411;75;729;-72
2022/01/23 10:09:31;;;;;;;;;;;23.60;43.10;;;;;;1565849;75;819;-71
2022/01/23 10:11:37;;;;;;;;;;;23.60;43.10;;;;;;1521629;76;789;-72
2022/01/23 10:13:37;;;;;;;;;;;23.60;43.10;;;;;;1564188;75;1206;-70
2022/01/23 10:15:39;;;;;;;;;;;23.70;43.20;;;;;;1559903;75;1227;-71
2022/01/23 10:17:40;;;;;;;;;;;23.70;43.20;;;;;;1566401;75;684;-70
2022/01/23 10:19:42;;;;;;;;;;;23.70;43.30;;;;;;1563109;75;1943;-70
2022/01/23 10:21:44;;;;;;;;;;;23.80;43.30;;;;;;1564867;75;696;-71
2022/01/23 10:23:47;;;;;;;;;;;23.80;43.40;;;;;;1563108;75;717;-71
2022/01/23 10:25:51;;;;;;;;;;;23.90;43.40;;;;;;1557284;75;1184;-71
2022/01/23 10:28:05;;;;;;;;;;;23.80;43.40;;;;;;1561840;75;1637;-73
2022/01/23 10:30:05;;;;;;;;;;;23.80;43.40;;;;;;1560093;75;1040;-72
2022/01/23 10:32:11;;;;;;;;;;;23.90;43.50;;;;;;1563399;75;1501;-71
2022/01/23 10:34:13;;;;;;;;;;;23.90;43.50;;;;;;1557417;75;705;-72
2022/01/23 10:36:19;;;;;;;;;;;24.00;43.60;;;;;;1556282;74;1111;-72
2022/01/23 10:38:22;;;;;;;;;;;23.90;43.60;;;;;;1562144;75;614;-72
2022/01/23 10:40:26;;;;;;;;;;;24.00;43.60;;;;;;1558582;75;1907;-72
2022/01/23 10:47:27;;;;;;;;;;;24.00;43.60;;;;;;1524566;75;1074;-72
2022/01/23 10:48:55;;;;;;;;;;;24.00;43.70;;;;;;1559866;75;1065;-71
2022/01/23 10:50:59;;;;;;;;;;;24.00;43.50;;;;;;1557605;75;669;-71
2022/01/23 10:53:01;;;;;;;;;;;23.90;43.40;;;;;;1563416;75;953;-72
2022/01/23 10:55:04;;;;;;;;;;;23.80;43.30;;;;;;1543414;75;1147;-72
2022/01/23 10:57:08;;;;;;;;;;;23.90;43.40;;;;;;1553437;75;756;-72
2022/01/23 10:59:11;;;;;;;;;;;24.00;43.40;;;;;;1554256;75;681;-71
2022/01/23 11:01:13;;;;;;;;;;;24.00;43.30;;;;;;1554106;75;1952;-73
2022/01/23 11:03:16;;;;;;;;;;;24.00;43.40;;;;;;1556611;75;704;-72
2022/01/23 11:05:19;;;;;;;;;;;24.00;43.40;;;;;;1552449;75;1124;-73
2022/01/23 11:07:21;;;;;;;;;;;24.00;43.30;;;;;;1553693;75;641;-73
2022/01/23 11:09:27;;;;;;;;;;;24.10;43.40;;;;;;1556215;75;712;-73
2022/01/23 11:11:32;;;;;;;;;;;24.00;43.30;;;;;;1560041;75;882;-73
2022/01/23 11:18:15;;;;;;;;;;;24.20;43.50;;;;;;1557503;75;1652;-73
2022/01/23 11:20:19;;;;;;;;;;;24.00;43.30;;;;;;1569361;75;1923;-73
2022/01/23 11:22:21;;;;;;;;;;;24.10;43.50;;;;;;1554901;75;1603;-73
2022/01/23 11:24:23;;;;;;;;;;;24.10;43.50;;;;;;1568011;75;682;-73
2022/01/23 11:26:25;;;;;;;;;;;24.10;43.50;;;;;;1561458;75;739;-73
2022/01/23 11:28:40;;;;;;;;;;;24.20;43.50;;;;;;1554808;75;747;-72
2022/01/23 11:30:42;;;;;;;;;;;24.20;43.50;;;;;;1554568;75;1452;-72
2022/01/23 11:32:44;;;;;;;;;;;24.20;43.50;;;;;;1556553;75;725;-72
2022/01/23 11:34:46;;;;;;;;;;;24.20;43.60;;;;;;1554654;75;1173;-72
2022/01/23 11:36:48;;;;;;;;;;;24.20;43.60;;;;;;1556948;75;764;-73
2022/01/23 11:38:53;;;;;;;;;;;24.20;43.60;;;;;;1564753;75;659;-71
2022/01/23 11:54:50;;;;;;;;;;;24.20;43.90;;;;;;1552353;75;1642;-71
2022/01/23 11:56:54;;;;;;;;;;;24.30;43.90;;;;;;1556471;75;724;-73
2022/01/23 11:58:57;;;;;;;;;;;24.30;44.00;;;;;;1557802;75;689;-72
2022/01/23 12:01:01;;;;;;;;;;;24.30;44.00;;;;;;1563524;75;1934;-72
2022/01/23 12:03:14;;;;;;;;;;;24.30;44.10;;;;;;1560450;75;1087;-73
2022/01/23 12:05:19;;;;;;;;;;;24.30;44.00;;;;;;1561414;75;1513;-73
2022/01/23 12:07:21;;;;;;;;;;;24.30;44.00;;;;;;1564646;75;1398;-73
2022/01/23 12:09:23;;;;;;;;;;;24.30;44.00;;;;;;1554501;75;723;-72
2022/01/23 12:11:53;;;;;;;;;;;24.30;44.00;;;;;;1562929;75;715;-73
2022/01/23 12:13:56;;;;;;;;;;;24.40;43.90;;;;;;1548319;75;1382;-73
2022/01/23 12:17:58;;;;;;;;;;;24.50;44.00;;;;;;1519138;75;767;-73
2022/01/23 12:20:01;;;;;;;;;;;24.40;43.90;;;;;;1516655;77;1933;-73
2022/01/23 12:22:23;;;;;;;;;;;24.40;44.00;;;;;;1559024;75;740;-72
2022/01/23 12:24:25;;;;;;;;;;;24.30;43.90;;;;;;1562305;74;1343;-72
2022/01/23 12:26:27;;;;;;;;;;;24.40;43.90;;;;;;1563823;75;715;-71
2022/01/23 12:28:31;;;;;;;;;;;24.30;43.90;;;;;;1565609;75;576;-70
2022/01/23 12:30:33;;;;;;;;;;;24.30;44.10;;;;;;1553047;75;731;-73
2022/01/23 12:32:35;;;;;;;;;;;24.30;44.20;;;;;;1555945;75;708;-74
2022/01/23 12:34:51;;;;;;;;;;;24.40;44.20;;;;;;1556410;75;1180;-71
2022/01/23 12:36:54;;;;;;;;;;;24.30;44.50;;;;;;1555440;75;1058;-69
2022/01/23 12:38:58;;;;;;;;;;;24.30;44.70;;;;;;1557561;75;1517;-70
2022/01/23 12:41:21;;;;;;;;;;;24.30;44.80;;;;;;1562544;75;1934;-71
2022/01/23 12:43:24;;;;;;;;;;;24.30;44.90;;;;;;1564527;75;1588;-70
2022/01/23 12:45:45;;;;;;;;;;;24.30;44.80;;;;;;1561346;75;2015;-69
2022/01/23 12:47:47;;;;;;;;;;;24.40;44.70;;;;;;1545541;75;735;-71
2022/01/23 12:49:50;;;;;;;;;;;24.40;44.70;;;;;;1553670;75;789;-70
2022/01/23 12:52:09;;;;;;;;;;;24.40;44.50;;;;;;1571089;75;780;-71
2022/01/23 12:54:12;;;;;;;;;;;24.40;44.50;;;;;;1565471;75;694;-73
2022/01/23 12:56:17;;;;;;;;;;;24.50;44.50;;;;;;1564824;74;1131;-71
2022/01/23 12:58:19;;;;;;;;;;;24.40;44.40;;;;;;1562834;75;704;-72
2022/01/23 13:00:25;;;;;;;;;;;24.50;44.30;;;;;;1564946;75;1919;-71
2022/01/23 13:02:29;;;;;;;;;;;24.30;44.20;;;;;;1564247;75;1183;-71
2022/01/23 13:04:37;;;;;;;;;;;24.40;44.20;;;;;;1563120;75;1420;-71
2022/01/23 13:06:55;;;;;;;;;;;24.40;44.20;;;;;;1571536;75;1879;-70
2022/01/23 13:09:03;;;;;;;;;;;24.40;44.20;;;;;;1565139;75;1392;-70
2022/01/23 13:13:26;;;;;;;;;;;24.50;44.20;;;;;;1564932;74;806;-70
2022/01/23 13:18:00;;;;;;;;;;;24.40;44.20;;;;;;1564756;75;869;-68
2022/01/23 13:31:09;;;;;;;;;;;24.40;44.20;;;;;;1565018;75;864;-70
2022/01/23 13:33:14;;;;;;;;;;;24.40;44.20;;;;;;1569905;75;1520;-69
2022/01/23 13:35:14;;;;;;;;;;;24.40;44.20;;;;;;1564192;74;1652;-69
2022/01/23 13:37:22;;;;;;;;;;;24.40;44.20;;;;;;1570922;75;1652;-70
2022/01/23 13:39:28;;;;;;;;;;;24.40;44.20;;;;;;1565021;75;678;-70
2022/01/23 13:41:45;;;;;;;;;;;24.50;44.30;;;;;;1564388;75;1919;-71
2022/01/23 13:53:23;;;;;;;;;;;24.30;44.30;;;;;;1569834;75;862;-70
2022/01/23 13:57:50;;;;;;;;;;;24.30;44.40;;;;;;1556007;75;713;-70
2022/01/23 13:59:49;;;;;;;;;;;24.30;44.40;;;;;;1556046;75;1149;-70
2022/01/23 14:02:08;;;;;;;;;;;24.30;44.40;;;;;;1561285;75;1923;-70
2022/01/23 14:03:57;;;;;;;;;;;24.30;44.40;;;;;;1561580;75;1622;-70
2022/01/23 14:05:59;;;;;;;;;;;24.30;44.40;;;;;;1564694;74;1262;-71
2022/01/23 14:08:02;;;;;;;;;;;24.30;44.40;;;;;;1570898;75;715;-70
2022/01/23 14:10:11;;;;;;;;;;;24.30;44.40;;;;;;1564877;75;740;-70
2022/01/23 14:12:14;;;;;;;;;;;24.30;44.40;;;;;;1568717;75;703;-70
2022/01/23 14:14:17;;;;;;;;;;;24.20;44.30;;;;;;1566623;75;733;-68
2022/01/23 14:16:20;;;;;;;;;;;24.30;44.40;;;;;;1556276;73;2090;-74
2022/01/23 14:18:24;;;;;;;;;;;24.30;44.40;;;;;;1536091;76;1118;-74
2022/01/23 14:20:27;;;;;;;;;;;24.30;44.50;;;;;;1538803;76;1935;-74
2022/01/23 14:22:29;;;;;;;;;;;24.30;44.40;;;;;;1533944;76;741;-74
2022/01/23 14:24:33;;;;;;;;;;;24.30;44.40;;;;;;1542768;76;702;-74
2022/01/23 14:26:35;;;;;;;;;;;24.20;44.30;;;;;;1546577;75;1188;-77
2022/01/23 14:28:41;;;;;;;;;;;24.30;44.40;;;;;;1531377;75;791;-74
2022/01/23 14:30:44;;;;;;;;;;;24.30;44.40;;;;;;1557467;75;774;-73
2022/01/23 14:32:50;;;;;;;;;;;24.30;44.40;;;;;;1546629;75;1032;-77
2022/01/23 14:34:50;;;;;;;;;;;24.30;44.40;;;;;;1529472;75;1169;-75
2022/01/23 14:37:01;;;;;;;;;;;24.30;44.40;;;;;;1541205;75;715;-75
2022/01/23 14:39:03;;;;;;;;;;;24.20;44.40;;;;;;1552303;75;1134;-73
2022/01/23 14:41:07;;;;;;;;;;;24.20;44.30;;;;;;1558539;75;1949;-77
2022/01/23 14:43:10;;;;;;;;;;;24.20;44.30;;;;;;1558390;75;780;-76
2022/01/23 14:45:12;;;;;;;;;;;24.20;44.40;;;;;;1539010;76;1140;-74
2022/01/23 14:47:13;;;;;;;;;;;24.20;44.30;;;;;;1557918;76;717;-75
2022/01/23 14:49:22;;;;;;;;;;;24.20;44.30;;;;;;1545329;75;671;-75
2022/01/23 14:51:26;;;;;;;;;;;24.20;44.30;;;;;;1551883;75;1072;-73
2022/01/23 14:53:24;;;;;;;;;;;24.20;44.40;;;;;;1557326;75;1434;-74
2022/01/23 14:55:25;;;;;;;;;;;24.20;44.40;;;;;;1557582;75;1137;-78
2022/01/23 14:57:29;;;;;;;;;;;24.20;44.40;;;;;;1533140;76;1203;-73
2022/01/23 14:59:31;;;;;;;;;;;24.20;44.40;;;;;;1564138;75;1062;-75
2022/01/23 15:01:33;;;;;;;;;;;24.20;44.40;;;;;;1560206;75;1962;-74
2022/01/23 15:03:36;;;;;;;;;;;24.10;44.40;;;;;;1561085;75;682;-75
2022/01/23 15:05:38;;;;;;;;;;;24.20;44.40;;;;;;1545571;75;1184;-74
2022/01/23 15:07:41;;;;;;;;;;;24.20;44.40;;;;;;1566264;75;709;-75
2022/01/23 15:09:43;;;;;;;;;;;24.20;44.40;;;;;;1558879;75;737;-75
2022/01/23 15:11:45;;;;;;;;;;;24.20;44.40;;;;;;1559741;75;734;-75
2022/01/23 15:13:47;;;;;;;;;;;24.20;44.40;;;;;;1560357;75;732;-75
2022/01/23 15:15:50;;;;;;;;;;;24.20;44.40;;;;;;1549784;75;1128;-73
2022/01/23 15:17:52;;;;;;;;;;;24.20;44.40;;;;;;1566087;75;962;-76
2022/01/23 15:19:54;;;;;;;;;;;24.20;44.40;;;;;;1552710;75;727;-77
2022/01/23 15:21:56;;;;;;;;;;;24.20;44.40;;;;;;1561032;75;1930;-77
2022/01/23 15:23:58;;;;;;;;;;;24.20;44.40;;;;;;1551449;75;741;-77
2022/01/23 15:26:00;;;;;;;;;;;24.20;44.40;;;;;;1552565;75;1157;-81